Time;durP1;ratioP1;P1;durP2;ratioP2;P2;SDS_P1;SDS_P2;PMS_P1;PMS_P2;Temp;Humidity;BMP_temperature;BMP_pressure;BME280_temperature;BME280_humidity;BME280_pressure;Samples;Min_cycle;Max_cycle;Signal;HPM_P1;HPM_P2
2022/10/02 00:00:21;;;;;;;17.17;3.33;;;12.00;99.90;;;;;;5033651;28;20210;-58
2022/10/02 00:02:51;;;;;;;16.10;3.43;;;12.00;99.90;;;;;;5033283;28;20266;-58
2022/10/02 00:05:24;;;;;;;12.73;3.50;;;12.00;99.90;;;;;;5033550;28;20212;-58
2022/10/02 00:07:57;;;;;;;18.10;4.13;;;12.00;99.90;;;;;;5032928;28;20229;-58
2022/10/02 00:10:28;;;;;;;15.27;3.93;;;12.00;99.90;;;;;;5032975;28;20208;-58
2022/10/02 00:12:57;;;;;;;14.57;3.50;;;12.00;99.90;;;;;;5032816;28;20259;-57
2022/10/02 00:15:28;;;;;;;19.90;3.27;;;12.00;99.90;;;;;;5033052;28;20209;-57
2022/10/02 00:17:58;;;;;;;15.10;3.23;;;12.00;99.90;;;;;;5032735;28;20228;-58
2022/10/02 00:20:37;;;;;;;21.43;3.83;;;12.00;99.90;;;;;;5033171;28;20208;-57
2022/10/02 00:23:08;;;;;;;15.03;2.70;;;12.00;99.90;;;;;;5032658;28;20624;-57
2022/10/02 00:25:42;;;;;;;12.67;2.77;;;12.00;99.90;;;;;;5033252;28;20206;-58
2022/10/02 00:28:24;;;;;;;20.73;3.73;;;12.00;99.90;;;;;;5033029;28;20744;-56
2022/10/02 00:31:08;;;;;;;16.90;2.87;;;12.00;99.90;;;;;;5032715;28;20256;-57
2022/10/02 00:33:50;;;;;;;18.33;3.87;;;12.00;99.90;;;;;;5033092;28;20627;-54
2022/10/02 00:36:28;;;;;;;20.13;3.73;;;12.00;99.90;;;;;;5032840;28;20649;-56
2022/10/02 00:39:01;;;;;;;24.40;3.23;;;12.00;99.90;;;;;;5031778;28;20223;-57
2022/10/02 00:41:52;;;;;;;22.43;3.10;;;12.00;99.90;;;;;;5032558;28;20206;-57
2022/10/02 00:44:35;;;;;;;18.97;3.50;;;12.00;99.90;;;;;;5032377;28;20670;-58
2022/10/02 00:47:09;;;;;;;18.10;3.27;;;12.10;99.90;;;;;;5032338;28;20298;-58
2022/10/02 00:49:54;;;;;;;24.87;4.40;;;12.00;99.90;;;;;;5032505;28;20633;-52
2022/10/02 00:52:40;;;;;;;20.27;3.97;;;12.00;99.90;;;;;;5032077;28;20701;-56
2022/10/02 00:55:55;;;;;;;21.00;3.80;;;12.00;99.90;;;;;;5032277;28;20284;-55
2022/10/02 00:58:35;;;;;;;14.93;3.37;;;12.00;99.90;;;;;;5032184;28;20231;-58
2022/10/02 01:01:07;;;;;;;16.73;3.90;;;12.10;99.90;;;;;;5032358;28;20250;-58
2022/10/02 01:03:39;;;;;;;23.27;4.37;;;12.10;99.90;;;;;;5032231;28;20291;-56
2022/10/02 01:06:06;;;;;;;17.93;3.77;;;12.10;99.90;;;;;;5032165;28;20209;-58
2022/10/02 01:08:35;;;;;;;13.63;3.17;;;12.10;99.90;;;;;;5031834;28;20234;-58
2022/10/02 01:11:03;;;;;;;15.53;3.50;;;12.10;99.90;;;;;;5031912;28;20275;-57
2022/10/02 01:13:31;;;;;;;21.57;3.80;;;12.10;99.90;;;;;;5032103;28;20214;-57
2022/10/02 01:15:59;;;;;;;21.30;3.97;;;12.20;99.90;;;;;;5032040;28;20217;-57
2022/10/02 01:18:26;;;;;;;12.43;3.37;;;12.20;99.90;;;;;;5031897;28;20588;-56
2022/10/02 01:20:59;;;;;;;21.23;4.30;;;12.20;99.90;;;;;;5031836;28;20734;-58
2022/10/02 01:23:32;;;;;;;18.93;4.13;;;12.20;99.90;;;;;;5031602;28;20209;-58
2022/10/02 01:26:00;;;;;;;21.53;3.67;;;12.30;99.90;;;;;;5031830;28;20221;-55
2022/10/02 01:28:27;;;;;;;21.83;4.10;;;12.30;99.90;;;;;;5031809;28;20237;-58
2022/10/02 01:30:59;;;;;;;24.43;4.43;;;12.40;99.90;;;;;;5031665;28;20863;-58
2022/10/02 01:33:26;;;;;;;14.97;3.70;;;12.40;99.90;;;;;;5031794;28;20210;-57
2022/10/02 01:35:53;;;;;;;23.67;4.17;;;12.50;99.90;;;;;;5031612;28;20807;-58
2022/10/02 01:38:23;;;;;;;23.00;4.27;;;12.50;99.90;;;;;;5031580;28;20231;-58
2022/10/02 01:40:50;;;;;;;18.50;4.60;;;12.50;99.90;;;;;;5031889;28;20212;-58
2022/10/02 01:43:20;;;;;;;21.97;4.10;;;12.60;99.90;;;;;;5031726;28;20210;-57
2022/10/02 01:45:53;;;;;;;15.33;3.50;;;12.60;99.90;;;;;;5031608;28;20363;-57
2022/10/02 01:48:38;;;;;;;19.37;3.63;;;12.60;99.90;;;;;;5031474;28;20288;-57
2022/10/02 01:51:19;;;;;;;22.63;3.67;;;12.70;99.90;;;;;;5033509;28;20222;-58
2022/10/02 01:53:54;;;;;;;24.60;3.77;;;12.70;99.90;;;;;;5035743;28;20206;-58
2022/10/02 01:56:29;;;;;;;24.67;4.00;;;12.70;99.90;;;;;;5035533;28;20210;-58
2022/10/02 01:59:06;;;;;;;15.10;3.33;;;12.70;99.90;;;;;;5035249;28;20650;-58
2022/10/02 02:01:46;;;;;;;24.00;3.73;;;12.70;99.90;;;;;;5035508;28;20202;-58
2022/10/02 02:04:22;;;;;;;18.30;4.13;;;12.70;99.90;;;;;;5035555;28;20260;-58
2022/10/02 02:06:57;;;;;;;18.33;3.20;;;12.80;99.90;;;;;;5035231;28;20209;-58
2022/10/02 02:09:30;;;;;;;23.37;4.40;;;12.80;99.90;;;;;;5035192;28;20236;-58
2022/10/02 02:12:02;;;;;;;21.27;4.00;;;12.80;99.90;;;;;;5035409;28;20226;-58
2022/10/02 02:14:35;;;;;;;30.13;3.87;;;12.80;99.90;;;;;;5035429;28;20217;-58
2022/10/02 02:17:08;;;;;;;21.37;3.93;;;12.80;99.90;;;;;;5035042;28;20212;-58
2022/10/02 02:19:42;;;;;;;26.17;3.80;;;12.90;99.90;;;;;;5034962;28;20256;-58
2022/10/02 02:22:13;;;;;;;19.50;3.63;;;12.90;99.90;;;;;;5035348;28;20204;-58
2022/10/02 02:24:44;;;;;;;19.27;3.70;;;12.90;99.90;;;;;;5035124;28;20267;-57
2022/10/02 02:27:17;;;;;;;30.37;4.37;;;12.90;99.90;;;;;;5035058;28;20287;-58
2022/10/02 02:29:48;;;;;;;24.73;4.73;;;12.90;99.90;;;;;;5034983;28;20260;-56
2022/10/02 02:32:20;;;;;;;15.97;4.20;;;13.00;99.90;;;;;;5034830;28;20230;-57
2022/10/02 02:34:52;;;;;;;18.33;4.13;;;13.00;99.90;;;;;;5035094;28;20263;-58
2022/10/02 02:37:23;;;;;;;20.87;4.13;;;13.00;99.90;;;;;;5034647;28;20236;-57
2022/10/02 02:39:55;;;;;;;20.77;3.40;;;13.00;99.90;;;;;;5034887;28;20634;-58
2022/10/02 02:42:24;;;;;;;28.23;4.60;;;13.00;99.90;;;;;;5034949;28;20273;-55
2022/10/02 02:44:57;;;;;;;18.57;3.77;;;13.00;99.90;;;;;;5035482;28;20295;-58
2022/10/02 02:47:27;;;;;;;19.20;3.50;;;13.00;99.90;;;;;;5034407;28;20230;-58
2022/10/02 02:50:00;;;;;;;20.33;3.93;;;13.00;99.90;;;;;;5034861;28;20213;-58
2022/10/02 02:52:30;;;;;;;22.43;4.13;;;13.00;99.90;;;;;;5034533;28;20226;-58
2022/10/02 02:55:03;;;;;;;25.57;4.17;;;13.00;99.90;;;;;;5034434;28;20598;-58
2022/10/02 02:57:35;;;;;;;23.83;4.77;;;13.00;99.90;;;;;;5034372;28;20234;-58
2022/10/02 03:00:06;;;;;;;19.87;3.83;;;12.90;99.90;;;;;;5034446;28;20210;-58
2022/10/02 03:02:33;;;;;;;21.37;4.73;;;12.90;99.90;;;;;;5033704;28;20309;-58
2022/10/02 03:05:00;;;;;;;24.03;4.57;;;12.90;99.90;;;;;;5034158;28;20692;-58
2022/10/02 03:07:26;;;;;;;28.57;5.10;;;12.90;99.90;;;;;;5034143;28;20230;-58
2022/10/02 03:10:01;;;;;;;22.80;4.27;;;12.90;99.90;;;;;;5034045;28;20890;-57
2022/10/02 03:12:39;;;;;;;27.63;5.27;;;12.90;99.90;;;;;;5034538;28;20678;-58
2022/10/02 03:15:33;;;;;;;22.50;3.67;;;12.90;99.90;;;;;;5034007;28;20635;-59
2022/10/02 03:18:20;;;;;;;21.10;3.80;;;12.90;99.90;;;;;;5031337;28;20713;-59
2022/10/02 03:20:56;;;;;;;22.47;4.80;;;12.90;99.90;;;;;;5034304;28;20212;-58
2022/10/02 03:23:28;;;;;;;23.77;4.40;;;12.80;99.90;;;;;;5034034;28;20636;-58
2022/10/02 03:26:01;;;;;;;25.70;4.77;;;12.80;99.90;;;;;;5033436;28;20240;-58
2022/10/02 03:28:33;;;;;;;26.63;4.10;;;12.80;99.90;;;;;;5033963;28;20282;-59
2022/10/02 03:31:02;;;;;;;20.50;4.50;;;12.80;99.90;;;;;;5033990;28;20210;-59
2022/10/02 03:33:30;;;;;;;22.37;5.53;;;12.80;99.90;;;;;;5033756;28;20229;-59
2022/10/02 03:35:57;;;;;;;24.50;4.00;;;12.80;99.90;;;;;;5033744;28;20558;-58
2022/10/02 03:38:26;;;;;;;32.97;5.17;;;12.80;99.90;;;;;;5033763;28;20287;-59
2022/10/02 03:40:56;;;;;;;27.73;4.60;;;12.90;99.90;;;;;;5033467;28;20229;-59
2022/10/02 03:43:27;;;;;;;24.07;4.93;;;12.90;99.90;;;;;;5033793;28;20238;-59
2022/10/02 03:45:53;;;;;;;32.77;4.90;;;12.90;99.90;;;;;;5033322;28;20651;-59
2022/10/02 03:48:21;;;;;;;23.20;4.43;;;12.90;99.90;;;;;;5033432;28;20775;-59
2022/10/02 03:50:49;;;;;;;18.77;3.70;;;12.90;99.90;;;;;;5033464;28;20669;-59
2022/10/02 03:53:18;;;;;;;24.87;4.77;;;13.00;99.90;;;;;;5033176;28;20605;-59
2022/10/02 03:55:50;;;;;;;22.67;3.77;;;13.00;99.90;;;;;;5033164;28;20214;-59
2022/10/02 03:58:18;;;;;;;24.97;4.57;;;13.00;99.90;;;;;;5032956;28;20716;-59
2022/10/02 04:00:54;;;;;;;27.57;5.23;;;13.10;99.90;;;;;;5033286;28;20225;-58
2022/10/02 04:03:27;;;;;;;25.97;4.17;;;13.10;99.90;;;;;;5033355;28;20214;-59
2022/10/02 04:05:59;;;;;;;27.50;4.77;;;13.10;99.90;;;;;;5032905;28;20214;-58
2022/10/02 04:08:31;;;;;;;19.70;4.33;;;13.10;99.90;;;;;;5033203;28;20280;-58
2022/10/02 04:11:06;;;;;;;23.17;5.27;;;13.10;99.90;;;;;;5033168;28;20237;-59
2022/10/02 04:13:38;;;;;;;27.53;5.03;;;13.10;99.90;;;;;;5032681;28;20237;-59
2022/10/02 04:16:12;;;;;;;24.53;4.80;;;13.10;99.90;;;;;;5032229;28;20206;-59
2022/10/02 04:18:49;;;;;;;24.40;5.13;;;13.20;99.90;;;;;;5032595;28;20227;-59
2022/10/02 04:21:26;;;;;;;28.60;4.70;;;13.20;99.90;;;;;;5032971;28;20210;-58
2022/10/02 04:23:58;;;;;;;20.30;4.70;;;13.20;99.90;;;;;;5032927;28;20210;-59
2022/10/02 04:26:29;;;;;;;20.83;4.07;;;13.20;99.90;;;;;;5032415;28;20214;-59
2022/10/02 04:29:01;;;;;;;25.63;4.90;;;13.20;99.90;;;;;;5032977;28;20272;-58
2022/10/02 04:31:28;;;;;;;19.63;4.50;;;13.20;99.90;;;;;;5032861;28;20266;-57
2022/10/02 04:34:01;;;;;;;25.57;4.87;;;13.20;99.90;;;;;;5032796;28;20256;-56
2022/10/02 04:36:39;;;;;;;24.60;4.27;;;13.20;99.90;;;;;;5032572;28;20233;-53
2022/10/02 04:39:38;;;;;;;25.17;5.23;;;13.30;99.90;;;;;;5032492;28;20229;-58
2022/10/02 04:42:22;;;;;;;17.00;4.10;;;13.30;99.90;;;;;;5032268;28;20200;-57
2022/10/02 04:45:17;;;;;;;15.93;3.67;;;13.20;99.90;;;;;;5032454;28;20264;-57
2022/10/02 04:48:05;;;;;;;17.67;3.80;;;13.20;99.90;;;;;;5031835;28;20230;-59
2022/10/02 04:50:44;;;;;;;16.80;3.43;;;13.20;99.90;;;;;;5032477;28;20210;-59
2022/10/02 04:53:25;;;;;;;16.47;3.23;;;13.10;99.90;;;;;;5032386;28;20280;-56
2022/10/02 04:56:11;;;;;;;20.17;3.07;;;13.10;99.90;;;;;;5032121;28;20207;-56
2022/10/02 04:58:50;;;;;;;16.93;3.53;;;13.10;99.90;;;;;;5032540;28;20272;-58
2022/10/02 05:01:28;;;;;;;15.73;3.10;;;13.10;99.90;;;;;;5032344;28;20264;-59
2022/10/02 05:04:18;;;;;;;11.37;3.27;;;13.10;99.90;;;;;;5032261;28;20628;-58
2022/10/02 05:07:04;;;;;;;14.33;2.47;;;13.20;99.90;;;;;;5032023;28;20268;-56
2022/10/02 05:09:38;;;;;;;11.87;2.83;;;13.10;99.90;;;;;;5032053;28;20210;-56
2022/10/02 05:12:29;;;;;;;11.30;3.47;;;13.10;99.90;;;;;;5031959;28;20232;-58
2022/10/02 05:15:21;;;;;;;9.90;2.83;;;13.10;99.90;;;;;;5032107;28;20237;-59
2022/10/02 05:18:02;;;;;;;15.97;3.13;;;13.10;99.90;;;;;;5031545;28;20230;-59
2022/10/02 05:20:43;;;;;;;10.30;2.97;;;13.10;99.90;;;;;;5031813;28;20693;-59
2022/10/02 05:23:27;;;;;;;11.53;3.10;;;13.10;99.90;;;;;;5031822;28;20202;-59
2022/10/02 05:26:19;;;;;;;13.20;3.13;;;13.00;99.90;;;;;;5031413;28;20252;-59
2022/10/02 05:28:59;;;;;;;11.60;2.90;;;13.00;99.90;;;;;;5031899;28;20302;-58
2022/10/02 05:31:38;;;;;;;13.63;2.80;;;12.90;99.90;;;;;;5031769;28;20206;-58
2022/10/02 05:34:16;;;;;;;11.67;2.70;;;12.90;99.90;;;;;;5032333;28;20226;-58
2022/10/02 05:36:57;;;;;;;10.23;2.50;;;12.90;99.90;;;;;;5031931;28;20206;-58
2022/10/02 05:39:31;;;;;;;9.40;2.17;;;12.90;99.90;;;;;;5032048;28;20217;-59
2022/10/02 05:42:08;;;;;;;12.97;2.67;;;12.90;99.90;;;;;;5032412;28;20194;-59
2022/10/02 05:44:38;;;;;;;12.07;2.57;;;12.90;99.90;;;;;;5032299;28;20214;-59
2022/10/02 05:47:12;;;;;;;6.33;2.43;;;12.80;99.90;;;;;;5031281;28;20711;-59
2022/10/02 05:49:41;;;;;;;10.97;2.60;;;12.80;99.90;;;;;;5031679;28;20215;-59
2022/10/02 05:52:14;;;;;;;7.30;2.27;;;12.80;99.90;;;;;;5031767;28;20214;-58
2022/10/02 05:54:51;;;;;;;7.13;2.30;;;12.90;99.90;;;;;;5031919;28;20724;-59
2022/10/02 05:57:26;;;;;;;8.67;2.60;;;12.90;99.90;;;;;;5031919;28;20275;-59
2022/10/02 06:00:01;;;;;;;11.03;2.63;;;12.90;99.90;;;;;;5032059;28;20206;-59
2022/10/02 06:02:36;;;;;;;12.70;2.30;;;12.80;99.90;;;;;;5031712;28;20205;-59
2022/10/02 06:05:11;;;;;;;7.53;2.30;;;12.80;99.90;;;;;;5032073;28;20206;-59
2022/10/02 06:07:39;;;;;;;9.80;2.30;;;12.80;99.90;;;;;;5031521;28;20225;-59
2022/10/02 06:10:15;;;;;;;6.73;2.30;;;12.80;99.90;;;;;;5031625;28;20272;-59
2022/10/02 06:12:46;;;;;;;10.20;2.50;;;12.90;99.90;;;;;;5031694;28;20225;-59
2022/10/02 06:15:21;;;;;;;10.60;3.27;;;12.90;99.90;;;;;;5031503;28;20213;-59
2022/10/02 06:17:53;;;;;;;7.50;2.47;;;12.90;99.90;;;;;;5031314;28;20225;-59
2022/10/02 06:20:25;;;;;;;8.70;2.70;;;12.90;99.90;;;;;;5031496;28;20272;-59
2022/10/02 06:22:56;;;;;;;7.87;2.80;;;12.90;99.90;;;;;;5031423;28;20668;-59
2022/10/02 06:25:30;;;;;;;8.53;2.73;;;12.90;99.90;;;;;;5031131;28;20214;-59
2022/10/02 06:28:02;;;;;;;8.27;2.90;;;12.90;99.90;;;;;;5031315;28;20276;-59
2022/10/02 06:30:31;;;;;;;8.17;3.30;;;12.90;99.90;;;;;;5031286;28;20212;-59
2022/10/02 06:33:02;;;;;;;8.23;3.13;;;12.90;99.90;;;;;;5031531;28;20222;-59
2022/10/02 06:35:53;;;;;;;10.47;3.33;;;12.90;99.90;;;;;;5031447;28;20221;-59
2022/10/02 06:38:35;;;;;;;10.23;3.33;;;13.00;99.90;;;;;;5033011;28;20292;-59
2022/10/02 06:41:10;;;;;;;8.03;3.57;;;13.00;99.90;;;;;;5034909;28;20210;-59
2022/10/02 06:43:52;;;;;;;11.90;3.63;;;13.00;99.90;;;;;;5034725;28;20205;-58
2022/10/02 06:46:32;;;;;;;11.63;3.83;;;13.10;99.90;;;;;;5034238;28;20218;-59
2022/10/02 06:49:04;;;;;;;14.07;3.33;;;13.20;99.90;;;;;;5034865;28;20232;-59
2022/10/02 06:51:40;;;;;;;8.23;3.43;;;13.20;99.90;;;;;;5034732;28;20252;-59
2022/10/02 06:54:20;;;;;;;13.03;4.50;;;13.30;99.90;;;;;;5034605;28;20280;-59
2022/10/02 06:57:06;;;;;;;12.00;4.23;;;13.30;99.90;;;;;;5033983;28;20252;-59
2022/10/02 06:59:48;;;;;;;15.83;4.60;;;13.30;99.90;;;;;;5034604;28;20210;-59
2022/10/02 07:02:31;;;;;;;13.20;4.77;;;13.40;99.90;;;;;;5034533;28;20256;-59
2022/10/02 07:05:23;;;;;;;13.63;4.73;;;13.40;99.90;;;;;;5034394;28;20214;-58
2022/10/02 07:07:58;;;;;;;13.90;4.80;;;13.50;99.90;;;;;;5034064;28;20648;-59
2022/10/02 07:10:34;;;;;;;16.73;4.87;;;13.60;99.90;;;;;;5034312;28;20209;-59
2022/10/02 07:13:37;;;;;;;16.03;5.50;;;13.50;99.90;;;;;;5034335;28;20225;-58
2022/10/02 07:16:18;;;;;;;12.93;5.80;;;13.60;99.90;;;;;;5033941;28;20236;-58
2022/10/02 07:19:01;;;;;;;15.23;5.83;;;13.60;99.90;;;;;;5034425;28;20280;-59
2022/10/02 07:21:39;;;;;;;11.33;5.87;;;13.70;99.90;;;;;;5034119;28;20203;-59
2022/10/02 07:24:24;;;;;;;16.37;6.50;;;13.70;99.90;;;;;;5033971;28;20198;-59
2022/10/02 07:26:58;;;;;;;17.53;6.00;;;13.70;99.90;;;;;;5033602;28;20212;-59
2022/10/02 07:29:47;;;;;;;17.70;6.50;;;13.80;99.90;;;;;;5033919;28;20202;-59
2022/10/02 07:32:46;;;;;;;15.23;5.87;;;13.90;99.90;;;;;;5033771;28;20206;-59
2022/10/02 07:35:32;;;;;;;12.77;5.30;;;13.90;99.90;;;;;;5034013;28;20289;-59
2022/10/02 07:38:17;;;;;;;13.10;6.03;;;13.90;99.90;;;;;;5033668;28;20234;-59
2022/10/02 07:40:58;;;;;;;13.73;5.80;;;14.00;99.90;;;;;;5033543;28;20211;-58
2022/10/02 07:43:39;;;;;;;18.47;5.70;;;14.00;99.90;;;;;;5033810;28;20210;-57
2022/10/02 07:46:16;;;;;;;16.87;6.17;;;14.00;99.90;;;;;;5033232;28;20211;-58
2022/10/02 07:49:02;;;;;;;17.30;5.17;;;14.10;99.90;;;;;;5033033;28;20300;-58
2022/10/02 07:51:47;;;;;;;12.47;5.00;;;14.10;99.90;;;;;;5033607;28;20206;-57
2022/10/02 07:54:55;;;;;;;15.00;4.80;;;14.10;99.90;;;;;;5033511;28;20230;-58
2022/10/02 07:57:28;;;;;;;13.33;5.53;;;14.20;99.90;;;;;;5018938;28;20299;-58
2022/10/02 08:00:00;;;;;;;11.63;4.70;;;14.30;99.90;;;;;;5033657;28;20359;-58
2022/10/02 08:02:33;;;;;;;12.27;4.83;;;14.20;99.90;;;;;;5033140;28;20210;-56
2022/10/02 08:05:03;;;;;;;12.43;4.37;;;14.20;99.90;;;;;;5033268;28;20673;-58
2022/10/02 08:07:31;;;;;;;12.43;4.87;;;14.20;99.90;;;;;;5032835;28;20233;-58
2022/10/02 08:10:02;;;;;;;19.10;4.87;;;14.20;99.90;;;;;;5033234;28;20256;-58
2022/10/02 08:12:35;;;;;;;11.07;5.43;;;14.30;99.90;;;;;;5032770;28;20206;-57
2022/10/02 08:15:05;;;;;;;10.30;5.23;;;14.30;99.90;;;;;;5033001;28;20202;-58
2022/10/02 08:17:39;;;;;;;14.53;5.60;;;14.30;99.90;;;;;;5032518;28;20226;-56
2022/10/02 08:20:17;;;;;;;15.23;5.83;;;14.30;99.90;;;;;;5033112;28;20216;-58
2022/10/02 08:22:47;;;;;;;14.27;5.67;;;14.20;99.90;;;;;;5033098;28;20205;-57
2022/10/02 08:25:20;;;;;;;12.13;5.67;;;14.30;99.90;;;;;;5032885;28;20257;-58
2022/10/02 08:27:53;;;;;;;10.77;5.67;;;14.30;99.90;;;;;;5032208;28;20230;-58
2022/10/02 08:30:19;;;;;;;16.53;5.57;;;14.30;99.90;;;;;;5032870;28;20267;-57
2022/10/02 08:32:47;;;;;;;14.33;5.07;;;14.40;99.90;;;;;;5033298;28;20202;-53
2022/10/02 08:35:17;;;;;;;15.00;5.33;;;14.40;99.90;;;;;;5026939;28;20222;-54
2022/10/02 08:38:03;;;;;;;14.63;5.57;;;14.50;99.90;;;;;;5031412;28;20226;-56
2022/10/02 08:41:03;;;;;;;11.60;5.20;;;14.60;99.90;;;;;;5032162;28;20210;-58
2022/10/02 08:43:55;;;;;;;11.30;5.53;;;14.80;99.90;;;;;;5032101;28;20206;-60
2022/10/02 08:47:07;;;;;;;11.73;5.77;;;14.80;99.90;;;;;;5031432;28;20264;-61
2022/10/02 08:50:20;;;;;;;14.40;6.13;;;14.90;99.90;;;;;;5031925;28;20274;-60
2022/10/02 08:53:32;;;;;;;18.00;6.70;;;14.90;99.90;;;;;;5031948;28;20217;-62
2022/10/02 08:56:12;;;;;;;17.77;6.30;;;15.00;99.90;;;;;;5031335;28;20198;-61
2022/10/02 08:59:19;;;;;;;11.63;6.00;;;15.20;99.90;;;;;;5031816;28;20237;-61
2022/10/02 09:02:10;;;;;;;14.40;7.13;;;15.20;99.90;;;;;;5025920;28;20218;-62
2022/10/02 09:05:10;;;;;;;15.47;6.03;;;15.40;99.90;;;;;;5031759;28;20202;-61
2022/10/02 09:08:10;;;;;;;17.00;6.90;;;15.50;99.90;;;;;;5008944;28;20230;-61
2022/10/02 09:11:16;;;;;;;12.17;6.87;;;15.50;99.90;;;;;;5027497;28;20930;-59
2022/10/02 09:14:08;;;;;;;13.90;6.57;;;15.40;99.90;;;;;;5023582;28;20229;-57
2022/10/02 09:16:48;;;;;;;14.40;6.30;;;15.50;99.90;;;;;;5031151;28;20276;-66
2022/10/02 09:19:32;;;;;;;13.90;6.90;;;15.50;99.90;;;;;;5033089;28;20206;-59
2022/10/02 09:22:04;;;;;;;14.40;7.00;;;15.50;99.90;;;;;;5031892;28;20210;-59
2022/10/02 09:25:09;;;;;;;17.90;7.10;;;15.40;99.90;;;;;;5031515;28;20207;-60
2022/10/02 09:28:06;;;;;;;13.63;6.23;;;15.40;99.90;;;;;;5031028;28;20230;-59
2022/10/02 09:31:02;;;;;;;16.90;6.90;;;15.40;99.90;;;;;;5031371;28;20201;-61
2022/10/02 09:33:51;;;;;;;14.17;7.03;;;15.40;99.90;;;;;;5031468;28;20272;-62
2022/10/02 09:36:44;;;;;;;15.47;6.60;;;15.30;99.90;;;;;;5031080;28;20617;-62
2022/10/02 09:39:36;;;;;;;14.63;6.87;;;15.20;99.90;;;;;;5031266;28;20213;-62
2022/10/02 09:42:39;;;;;;;19.37;7.63;;;15.10;99.90;;;;;;5031261;28;20210;-62
2022/10/02 09:45:43;;;;;;;19.23;7.17;;;15.10;99.90;;;;;;5021711;28;20225;-61
2022/10/02 09:48:58;;;;;;;15.00;6.93;;;15.10;99.90;;;;;;5031121;28;20225;-61
2022/10/02 09:52:15;;;;;;;13.73;6.70;;;15.20;99.90;;;;;;5031220;28;20206;-59
2022/10/02 09:55:15;;;;;;;13.40;6.77;;;15.20;99.90;;;;;;5030700;28;20229;-59
2022/10/02 09:58:19;;;;;;;18.43;6.53;;;15.10;99.90;;;;;;5030896;28;20234;-59
2022/10/02 10:01:17;;;;;;;17.20;6.53;;;15.10;99.90;;;;;;5031319;28;20268;-60
2022/10/02 10:04:15;;;;;;;12.60;6.60;;;15.00;99.90;;;;;;5030836;28;20203;-59
2022/10/02 10:07:12;;;;;;;19.13;6.17;;;14.80;99.90;;;;;;5030943;28;20272;-63
2022/10/02 10:10:05;;;;;;;17.03;7.73;;;14.80;99.90;;;;;;5030900;28;20210;-63
2022/10/02 10:13:06;;;;;;;13.70;7.27;;;14.80;99.90;;;;;;5033247;28;20206;-63
2022/10/02 10:16:02;;;;;;;20.90;7.63;;;15.00;99.90;;;;;;5028680;28;20233;-64
2022/10/02 10:18:46;;;;;;;15.03;7.47;;;15.40;99.90;;;;;;5035126;28;20276;-63
2022/10/02 10:21:48;;;;;;;16.53;7.10;;;15.50;99.90;;;;;;5036569;28;20198;-67
2022/10/02 10:24:44;;;;;;;14.57;6.83;;;15.70;99.90;;;;;;5033848;28;20260;-64
2022/10/02 10:27:28;;;;;;;13.30;6.27;;;15.70;99.90;;;;;;5025128;28;20230;-65
2022/10/02 10:30:27;;;;;;;14.10;5.30;;;15.80;99.90;;;;;;5034641;28;20642;-61
2022/10/02 10:33:37;;;;;;;9.93;5.67;;;15.70;99.90;;;;;;5034957;28;20268;-58
2022/10/02 10:40:09;;;;;;;9.23;4.70;;;15.50;99.90;;;;;;5033541;28;20290;-62
2022/10/02 10:43:18;;;;;;;9.97;4.77;;;15.50;99.90;;;;;;5034832;28;20248;-64
2022/10/02 10:45:59;;;;;;;9.37;4.73;;;15.50;99.90;;;;;;5034153;28;20716;-61
2022/10/02 10:48:43;;;;;;;11.70;5.20;;;15.60;99.90;;;;;;5034168;28;20576;-60
2022/10/02 10:51:29;;;;;;;9.47;4.80;;;15.70;99.90;;;;;;5034367;28;20260;-59
2022/10/02 10:54:48;;;;;;;9.90;4.80;;;15.70;99.90;;;;;;5031325;28;20225;-60
2022/10/02 10:57:44;;;;;;;10.17;4.50;;;15.60;99.90;;;;;;5033785;28;20572;-58
2022/10/02 11:00:22;;;;;;;10.73;4.03;;;15.50;99.90;;;;;;5019118;28;20216;-58
2022/10/02 11:03:30;;;;;;;12.87;4.77;;;15.70;99.90;;;;;;5033452;28;20280;-58
2022/10/02 11:06:35;;;;;;;10.07;4.40;;;15.90;99.90;;;;;;5034396;28;20210;-58
2022/10/02 11:09:34;;;;;;;10.00;4.30;;;16.10;99.90;;;;;;5033958;28;20241;-60
2022/10/02 11:12:43;;;;;;;5.97;4.00;;;16.30;99.90;;;;;;5034158;28;20207;-61
2022/10/02 11:15:26;;;;;;;10.37;4.90;;;16.20;99.90;;;;;;5033345;28;20280;-60
2022/10/02 11:18:19;;;;;;;9.90;4.60;;;16.00;99.90;;;;;;5033569;28;20230;-60
2022/10/02 11:21:05;;;;;;;10.50;3.43;;;15.90;99.90;;;;;;5033526;28;20214;-60
2022/10/02 11:23:52;;;;;;;12.67;4.10;;;15.90;99.90;;;;;;5032653;28;20275;-60
2022/10/02 11:26:36;;;;;;;12.17;5.13;;;15.80;99.90;;;;;;5033319;28;20278;-59
2022/10/02 11:29:17;;;;;;;9.00;3.50;;;15.70;99.90;;;;;;5033284;28;20265;-60
2022/10/02 11:32:16;;;;;;;11.60;3.20;;;15.90;99.90;;;;;;5033445;28;20206;-57
2022/10/02 11:35:13;;;;;;;9.07;3.07;;;16.00;96.20;;;;;;5032709;28;20317;-63
2022/10/02 11:38:21;;;;;;;7.67;2.77;;;15.90;82.70;;;;;;5028273;28;20258;-56
2022/10/02 11:41:07;;;;;;;7.57;2.70;;;15.70;40.70;;;;;;5033303;28;20214;-55
2022/10/02 11:44:00;;;;;;;10.03;3.20;;;15.70;45.40;;;;;;5033334;28;20202;-57
2022/10/02 11:46:48;;;;;;;10.53;3.10;;;15.60;67.50;;;;;;5032396;28;20700;-53
2022/10/02 11:49:59;;;;;;;8.70;2.93;;;15.60;90.60;;;;;;5033138;28;20206;-55
2022/10/02 11:52:45;;;;;;;6.37;3.30;;;15.50;98.20;;;;;;5032959;28;20256;-57
2022/10/02 11:55:29;;;;;;;5.40;2.70;;;15.60;91.30;;;;;;5032880;28;20716;-56
2022/10/02 11:58:10;;;;;;;6.70;2.63;;;15.60;77.60;;;;;;5032308;28;20262;-58
2022/10/02 12:01:08;;;;;;;15.10;7.83;;;15.70;65.10;;;;;;5032812;28;20254;-56
2022/10/02 12:03:56;;;;;;;10.70;3.37;;;15.90;64.90;;;;;;5033322;28;20206;-62
2022/10/02 12:06:36;;;;;;;14.43;6.53;;;16.20;62.60;;;;;;5032098;28;20210;-57
2022/10/02 12:09:11;;;;;;;9.07;3.53;;;16.30;55.20;;;;;;5032547;28;20226;-56
2022/10/02 12:11:44;;;;;;;6.90;2.80;;;16.60;33.10;;;;;;5033216;28;20198;-56
2022/10/02 12:14:31;;;;;;;8.77;2.43;;;16.80;26.90;;;;;;5032645;28;20687;-57
2022/10/02 12:17:16;;;;;;;12.40;2.53;;;16.90;39.20;;;;;;5032011;28;20256;-55
2022/10/02 12:28:35;;;;;;;5.93;2.67;;;16.90;1.00;;;;;;5032419;28;20229;-50
2022/10/02 12:31:10;;;;;;;6.97;2.40;;;16.80;1.00;;;;;;5032981;28;20206;-62
2022/10/02 12:33:45;;;;;;;5.77;2.30;;;16.90;3.00;;;;;;5032563;28;20210;-60
2022/10/02 12:36:33;;;;;;;12.07;2.97;;;17.00;1.00;;;;;;5030781;28;20261;-59
2022/10/02 12:39:09;;;;;;;6.47;2.63;;;16.90;1.00;;;;;;5032020;28;20257;-58
2022/10/02 12:41:57;;;;;;;8.63;2.70;;;16.70;1.00;;;;;;5031659;28;20699;-58
2022/10/02 12:44:50;;;;;;;10.00;2.83;;;16.60;1.00;;;;;;5032016;28;20214;-59
2022/10/02 12:47:48;;;;;;;8.30;2.47;;;16.50;1.00;;;;;;5023710;28;20232;-61
2022/10/02 12:50:23;;;;;;;6.70;2.23;;;16.40;1.00;;;;;;5029071;28;20676;-63
2022/10/02 12:53:19;;;;;;;9.47;2.93;;;16.40;1.00;;;;;;5031085;28;20220;-60
2022/10/02 12:56:05;;;;;;;7.03;2.40;;;16.40;1.00;;;;;;5005922;28;20230;-60
2022/10/02 12:58:44;;;;;;;7.73;2.23;;;16.50;1.00;;;;;;5032110;28;20313;-60
2022/10/02 13:01:43;;;;;;;8.53;2.23;;;16.50;1.00;;;;;;5032154;28;20583;-60
2022/10/02 13:04:56;;;;;;;7.83;2.03;;;16.50;1.00;;;;;;5032161;28;20711;-60
2022/10/02 13:07:41;;;;;;;8.40;2.10;;;16.60;1.00;;;;;;5031495;28;20226;-59
2022/10/02 13:10:18;;;;;;;9.27;2.37;;;16.60;1.00;;;;;;5032719;28;20249;-60
2022/10/02 13:13:01;;;;;;;5.93;2.00;;;16.60;1.00;;;;;;5032576;28;20292;-59
2022/10/02 13:15:37;;;;;;;7.57;1.50;;;16.60;1.00;;;;;;5031800;28;20225;-56
2022/10/02 13:18:20;;;;;;;9.13;1.90;;;16.50;99.90;;;;;;5031715;28;20267;-58
2022/10/02 13:21:00;;;;;;;12.10;2.13;;;16.30;99.90;;;;;;5032164;28;20213;-56
2022/10/02 13:23:37;;;;;;;9.03;1.77;;;16.10;99.90;;;;;;5032072;28;20222;-57
2022/10/02 13:26:11;;;;;;;7.20;1.80;;;16.00;99.90;;;;;;5031649;28;20198;-59
2022/10/02 13:28:56;;;;;;;5.47;1.93;;;16.00;99.90;;;;;;5031888;28;20236;-55
2022/10/02 13:31:39;;;;;;;11.70;1.70;;;15.90;1.00;;;;;;5032039;28;20210;-59
2022/10/02 13:34:18;;;;;;;9.53;1.83;;;15.90;99.90;;;;;;5031989;28;20210;-59
2022/10/02 13:37:00;;;;;;;6.73;1.97;;;15.90;1.00;;;;;;5031852;28;20202;-59
2022/10/02 13:39:52;;;;;;;7.00;1.83;;;15.90;99.90;;;;;;5031934;28;20206;-59
2022/10/02 13:42:35;;;;;;;6.67;1.43;;;15.90;99.90;;;;;;5031944;28;20206;-59
2022/10/02 13:45:12;;;;;;;9.27;2.13;;;16.00;99.90;;;;;;5031819;28;20217;-56
2022/10/02 13:47:42;;;;;;;5.37;1.70;;;16.00;99.90;;;;;;5034368;28;20597;-57
2022/10/02 13:50:22;;;;;;;8.60;1.20;;;16.00;99.90;;;;;;5035868;28;20697;-58
2022/10/02 13:53:04;;;;;;;6.33;1.60;;;16.00;99.90;;;;;;5035650;28;20260;-58
2022/10/02 13:55:34;;;;;;;6.57;2.00;;;16.00;99.90;;;;;;5035156;28;20693;-57
2022/10/02 13:58:14;;;;;;;8.40;1.40;;;15.90;99.90;;;;;;5035588;28;20304;-57
2022/10/02 14:00:53;;;;;;;9.33;1.70;;;15.80;99.90;;;;;;5035464;28;20665;-58
2022/10/02 14:03:32;;;;;;;8.27;1.93;;;15.70;99.90;;;;;;5035597;28;20210;-58